Time;durP1;ratioP1;P1;durP2;ratioP2;P2;SDS_P1;SDS_P2;PMS_P1;PMS_P2;Temp;Humidity;BMP_temperature;BMP_pressure;BME280_temperature;BME280_humidity;BME280_pressure;Samples;Min_cycle;Max_cycle;Signal;HPM_P1;HPM_P2
2024/02/22 00:02:46;;;;;;;2.90;2.70;;;8.90;99.90;;;9.79;75.29;97097.16;10381270;28;20260;-67
2024/02/22 00:07:49;;;;;;;3.40;3.10;;;9.10;99.90;;;9.91;71.77;97094.31;10384764;28;20229;-66
2024/02/22 00:12:53;;;;;;;4.43;3.70;;;9.20;99.90;;;10.10;69.68;97083.25;10381272;28;20221;-65
2024/02/22 00:17:57;;;;;;;3.40;3.10;;;9.30;99.90;;;10.32;68.23;97064.72;10378693;28;20241;-67
2024/02/22 00:23:01;;;;;;;2.83;2.63;;;9.60;99.90;;;10.25;66.38;97055.03;10374967;28;20242;-67
2024/02/22 00:28:06;;;;;;;2.78;2.58;;;9.60;99.90;;;10.35;67.75;97035.09;10377415;28;20261;-66
2024/02/22 00:33:09;;;;;;;2.42;2.22;;;9.60;99.90;;;10.70;64.06;97024.66;10384651;28;20705;-65
2024/02/22 00:38:13;;;;;;;2.42;2.22;;;9.90;99.90;;;10.78;63.16;97019.06;10379000;28;20222;-67
2024/02/22 00:43:17;;;;;;;2.72;2.40;;;10.00;99.90;;;10.77;62.89;97012.22;10381545;28;20234;-68
2024/02/22 00:48:20;;;;;;;2.28;2.15;;;10.10;99.90;;;10.87;63.89;97007.47;10382114;28;20224;-66
2024/02/22 00:53:24;;;;;;;2.33;2.10;;;10.20;99.90;;;10.98;62.18;96994.31;10389732;28;20226;-67
2024/02/22 00:58:28;;;;;;;2.95;2.67;;;10.20;99.90;;;11.09;61.44;96974.31;10387648;28;20225;-67
2024/02/22 01:03:31;;;;;;;2.60;2.40;;;10.40;99.90;;;11.47;58.48;96964.72;10386822;22;20225;-65
2024/02/22 01:08:35;;;;;;;1.90;1.80;;;10.70;99.90;;;11.68;57.78;96968.13;10355024;28;20702;-65
2024/02/22 01:13:39;;;;;;;2.08;1.98;;;11.00;99.90;;;11.75;57.82;96958.13;10353718;28;20226;-65
2024/02/22 01:18:42;;;;;;;2.33;2.13;;;11.00;99.90;;;12.11;55.67;96940.72;10347536;28;20506;-65
2024/02/22 01:23:46;;;;;;;2.25;2.15;;;11.60;99.90;;;11.93;58.57;96936.69;10353382;28;20234;-65
2024/02/22 01:28:50;;;;;;;2.20;2.10;;;11.40;99.90;;;11.78;61.73;96940.31;10351721;28;20610;-65
2024/02/22 01:33:53;;;;;;;2.50;2.30;;;11.20;99.90;;;11.75;63.17;96917.16;10350226;28;20317;-64
2024/02/22 01:38:57;;;;;;;2.30;2.10;;;11.10;99.90;;;11.68;64.69;96910.94;10348079;28;20226;-65
2024/02/22 01:44:01;;;;;;;2.60;2.40;;;11.30;99.90;;;11.50;66.53;96904.31;10353528;28;20248;-64
2024/02/22 01:49:06;;;;;;;3.25;2.80;;;11.10;99.90;;;11.49;65.66;96884.66;10348241;28;20625;-64
2024/02/22 01:54:11;;;;;;;2.90;2.20;;;11.20;99.90;;;11.68;64.98;96887.91;10348630;28;20284;-65
2024/02/22 01:59:17;;;;;;;2.30;2.10;;;11.30;99.90;;;11.72;63.81;96884.63;10345780;28;20835;-65
2024/02/22 02:04:20;;;;;;;2.22;2.03;;;11.40;99.90;;;11.67;66.29;96869.09;10350199;28;20591;-64
2024/02/22 02:09:23;;;;;;;2.53;2.33;;;11.40;99.90;;;11.55;67.72;96857.56;10343489;28;20309;-64
2024/02/22 02:14:28;;;;;;;2.47;2.22;;;11.00;99.90;;;11.62;67.80;96844.19;10347775;28;20273;-64
2024/02/22 02:19:33;;;;;;;2.60;2.40;;;11.00;99.90;;;11.49;70.61;96847.97;10346129;28;21011;-64
2024/02/22 02:24:42;;;;;;;2.50;2.30;;;10.90;99.90;;;11.16;74.73;96843.34;10344671;28;20594;-64
2024/02/22 02:29:47;;;;;;;2.47;2.28;;;10.60;99.90;;;10.92;77.41;96821.91;10350516;28;20222;-65
2024/02/22 02:34:50;;;;;;;2.63;2.42;;;10.40;99.90;;;10.80;79.29;96807.84;10348595;28;20237;-65
2024/02/22 02:39:54;;;;;;;2.75;2.55;;;10.30;99.90;;;10.61;81.02;96797.72;10345383;28;20226;-64
2024/02/22 02:44:58;;;;;;;2.38;2.28;;;10.20;99.90;;;10.32;83.81;96802.53;10343899;28;20709;-64
2024/02/22 02:50:02;;;;;;;3.35;2.70;;;10.00;99.90;;;10.12;87.23;96788.03;10346851;28;20353;-64
2024/02/22 02:55:05;;;;;;;2.85;2.65;;;9.80;99.90;;;10.25;85.96;96786.88;10347223;28;20629;-64
2024/02/22 03:00:14;;;;;;;3.20;2.88;;;9.80;99.90;;;9.95;88.78;96789.03;10343756;28;20226;-65
2024/02/22 03:05:18;;;;;;;3.25;3.05;;;9.60;99.90;;;9.86;89.77;96764.84;10343895;28;20238;-64
2024/02/22 03:10:21;;;;;;;2.70;2.50;;;9.40;99.90;;;9.92;87.99;96772.75;10345606;28;20439;-65
2024/02/22 03:15:27;;;;;;;2.80;2.60;;;9.50;99.90;;;9.84;89.06;96757.94;10343567;28;20230;-64
2024/02/22 03:20:30;;;;;;;3.15;2.40;;;9.70;99.90;;;9.77;91.54;96754.25;10349218;28;20353;-64
2024/02/22 03:25:34;;;;;;;2.58;2.38;;;9.70;99.90;;;9.71;93.09;96736.16;10349427;28;20238;-64
2024/02/22 03:30:39;;;;;;;2.47;2.28;;;9.60;99.90;;;9.62;93.66;96733.22;10346826;28;20248;-64
2024/02/22 03:35:42;;;;;;;2.40;2.30;;;9.50;99.90;;;9.66;93.71;96720.63;10349165;28;20767;-64
2024/02/22 03:40:45;;;;;;;2.60;2.40;;;9.40;99.90;;;9.59;93.00;96715.25;10343094;28;20233;-64
2024/02/22 03:45:50;;;;;;;2.17;2.00;;;9.50;99.90;;;9.47;96.84;96707.91;10345426;28;20222;-64
2024/02/22 03:50:53;;;;;;;2.30;2.17;;;9.40;99.90;;;9.33;98.10;96709.00;10342708;28;20773;-64
2024/02/22 03:55:56;;;;;;;2.47;2.37;;;9.30;99.90;;;9.43;97.89;96701.81;10346239;28;20736;-64
2024/02/22 04:01:05;;;;;;;2.63;2.53;;;9.20;99.90;;;9.45;96.96;96694.25;10341526;28;20837;-66
2024/02/22 04:06:08;;;;;;;2.23;2.10;;;9.40;99.90;;;9.45;97.75;96684.91;10343971;28;20872;-66
2024/02/22 04:11:12;;;;;;;2.23;2.07;;;9.40;99.90;;;9.42;99.14;96678.81;10342707;28;20230;-64
2024/02/22 04:16:17;;;;;;;2.03;1.93;;;9.40;99.90;;;9.42;99.37;96668.63;10343898;28;20642;-64
2024/02/22 04:21:20;;;;;;;2.20;2.10;;;9.30;99.90;;;9.46;100.00;96679.00;10345540;28;20305;-65
2024/02/22 04:26:23;;;;;;;2.40;2.30;;;9.30;99.90;;;9.47;100.00;96670.56;10347081;28;20541;-65
2024/02/22 04:31:28;;;;;;;2.10;2.00;;;9.30;99.90;;;9.48;100.00;96663.75;10343712;28;20235;-65
2024/02/22 04:36:31;;;;;;;1.85;1.75;;;9.20;99.90;;;9.50;100.00;96663.81;10345929;28;20221;-65
2024/02/22 04:41:35;;;;;;;1.90;1.80;;;9.30;99.90;;;9.50;100.00;96658.72;10340747;28;20241;-65
2024/02/22 04:46:39;;;;;;;1.97;1.87;;;9.20;99.90;;;9.48;100.00;96658.66;10346442;28;20770;-65
2024/02/22 04:51:43;;;;;;;1.60;1.50;;;9.10;99.90;;;9.52;100.00;96657.09;10343379;28;20246;-65
2024/02/22 04:56:46;;;;;;;1.97;1.87;;;9.00;99.90;;;9.44;100.00;96647.47;10342322;28;20229;-65
2024/02/22 05:01:51;;;;;;;1.97;1.87;;;9.20;99.90;;;9.46;100.00;96640.72;10341771;28;20372;-65
2024/02/22 05:06:54;;;;;;;1.93;1.67;;;9.00;99.90;;;9.52;100.00;96634.16;10340229;28;20238;-65
2024/02/22 05:11:57;;;;;;;1.70;1.60;;;9.00;99.90;;;9.57;100.00;96628.44;10344671;28;20237;-65
2024/02/22 05:17:02;;;;;;;2.00;1.90;;;9.10;99.90;;;9.44;100.00;96621.06;10344319;28;20230;-65
2024/02/22 05:22:05;;;;;;;1.90;1.80;;;9.10;99.90;;;9.34;100.00;96616.41;10342275;28;20238;-65
2024/02/22 05:27:10;;;;;;;1.50;1.40;;;9.00;99.90;;;9.42;100.00;96608.28;10345087;28;20230;-65
2024/02/22 05:32:15;;;;;;;1.85;1.75;;;8.90;99.90;;;9.45;100.00;96607.53;10345377;28;20238;-65
2024/02/22 05:37:18;;;;;;;1.75;1.65;;;8.90;99.90;;;9.48;100.00;96598.31;10347073;28;20308;-66
2024/02/22 05:42:21;;;;;;;2.20;2.10;;;8.90;99.90;;;9.52;100.00;96591.66;10353256;28;20223;-66
2024/02/22 05:47:26;;;;;;;1.60;1.60;;;8.90;99.90;;;9.51;100.00;96583.97;10351334;28;20241;-65
2024/02/22 05:52:29;;;;;;;2.15;2.05;;;9.00;99.90;;;9.47;100.00;96576.19;10353206;28;20369;-65
2024/02/22 05:57:33;;;;;;;1.85;1.75;;;8.90;99.90;;;9.44;100.00;96575.16;10347478;28;20226;-65
2024/02/22 06:02:37;;;;;;;1.83;1.73;;;8.80;99.90;;;9.37;100.00;96574.06;10347102;28;20223;-65
2024/02/22 06:07:40;;;;;;;2.15;2.00;;;8.80;99.90;;;9.28;100.00;96568.59;10348986;28;20246;-65
2024/02/22 06:12:44;;;;;;;2.03;1.92;;;8.80;99.90;;;9.37;100.00;96571.50;10348828;28;20255;-66
2024/02/22 06:17:49;;;;;;;1.98;1.88;;;8.80;99.90;;;9.38;100.00;96557.94;10347854;28;20686;-66
2024/02/22 06:22:52;;;;;;;2.00;1.90;;;8.80;99.90;;;9.43;100.00;96553.03;10347470;28;20248;-66
2024/02/22 06:27:56;;;;;;;1.80;1.70;;;8.80;99.90;;;9.39;100.00;96541.84;10345128;28;20260;-65
2024/02/22 06:33:01;;;;;;;2.00;1.90;;;8.80;99.90;;;9.38;100.00;96537.53;10345971;28;20384;-65
2024/02/22 06:38:04;;;;;;;2.17;1.98;;;8.90;99.90;;;9.34;100.00;96538.25;10348166;28;20231;-66
2024/02/22 06:43:08;;;;;;;2.03;1.93;;;8.80;99.90;;;9.31;100.00;96533.03;10346105;28;20241;-65
2024/02/22 06:48:12;;;;;;;1.90;1.80;;;8.80;99.90;;;9.36;100.00;96528.97;10344292;28;20625;-65
2024/02/22 06:53:16;;;;;;;2.27;1.83;;;8.80;99.90;;;9.50;100.00;96526.09;10347246;28;20234;-65
2024/02/22 06:58:20;;;;;;;2.57;2.20;;;9.00;99.90;;;9.47;100.00;96519.19;10345666;28;20226;-65
2024/02/22 07:03:24;;;;;;;2.17;2.00;;;8.90;99.90;;;9.52;100.00;96501.53;10346971;28;20726;-69
2024/02/22 07:08:28;;;;;;;2.13;2.00;;;9.10;99.90;;;9.53;100.00;96503.25;10347181;28;20610;-65
2024/02/22 07:13:34;;;;;;;2.50;1.67;;;9.10;99.90;;;9.46;100.00;96505.56;10350417;28;20227;-66
2024/02/22 07:18:38;;;;;;;2.03;1.70;;;9.00;99.90;;;9.36;100.00;96500.94;10351704;28;20215;-68
2024/02/22 07:23:42;;;;;;;1.90;1.80;;;8.90;99.90;;;9.46;100.00;96495.38;10354271;28;20284;-65
2024/02/22 07:28:46;;;;;;;1.80;1.70;;;8.90;99.90;;;9.34;100.00;96497.44;10345166;28;20222;-65
2024/02/22 07:33:51;;;;;;;2.20;2.00;;;8.80;99.90;;;9.52;100.00;96486.22;10343358;28;20752;-65
2024/02/22 07:38:54;;;;;;;1.80;1.70;;;8.90;99.90;;;9.45;100.00;96491.09;10347654;28;20230;-65
2024/02/22 07:43:57;;;;;;;2.50;2.33;;;8.90;99.90;;;9.45;100.00;96491.09;10345435;28;20222;-65
2024/02/22 07:49:03;;;;;;;1.90;1.80;;;8.90;99.90;;;9.66;100.00;96482.50;10347891;28;20230;-65
2024/02/22 07:54:08;;;;;;;2.30;2.10;;;9.00;99.90;;;9.57;100.00;96474.53;10343303;28;20243;-66
2024/02/22 07:59:11;;;;;;;2.00;1.90;;;9.10;99.90;;;9.53;100.00;96486.28;10345644;28;20226;-65
2024/02/22 08:04:16;;;;;;;2.10;2.00;;;9.00;99.90;;;9.57;100.00;96477.06;10346254;28;20793;-66
2024/02/22 08:09:19;;;;;;;2.23;2.00;;;9.00;99.90;;;9.51;100.00;96469.19;10344978;28;20610;-65
2024/02/22 08:14:22;;;;;;;2.20;1.92;;;8.90;99.90;;;9.70;100.00;96459.75;10346568;28;20632;-65
2024/02/22 08:19:27;;;;;;;2.38;2.10;;;9.10;99.90;;;9.57;100.00;96465.19;10343512;28;20586;-65
2024/02/22 08:24:30;;;;;;;3.20;2.15;;;9.00;99.90;;;9.61;100.00;96445.75;10341655;28;20654;-65
2024/02/22 08:29:33;;;;;;;2.42;1.77;;;9.10;99.90;;;9.45;100.00;96455.38;10340135;28;20305;-65
2024/02/22 08:34:38;;;;;;;1.70;1.60;;;9.00;99.90;;;9.52;100.00;96450.50;10337951;28;20231;-65
2024/02/22 08:39:41;;;;;;;1.88;1.77;;;9.00;99.90;;;9.62;100.00;96440.72;10345845;28;20262;-65
2024/02/22 08:44:44;;;;;;;1.90;1.80;;;9.00;99.90;;;9.65;100.00;96437.41;10343234;28;20229;-65
2024/02/22 08:49:49;;;;;;;1.77;1.67;;;9.10;99.90;;;9.58;100.00;96421.00;10342265;28;20935;-65
2024/02/22 08:54:53;;;;;;;1.33;1.23;;;9.00;99.90;;;9.54;100.00;96415.75;10345379;28;20282;-65
2024/02/22 08:59:56;;;;;;;1.37;1.37;;;9.00;99.90;;;9.70;100.00;96407.84;10342835;28;20235;-65
2024/02/22 09:05:00;;;;;;;1.77;1.67;;;9.20;99.90;;;9.74;100.00;96406.28;10343421;28;20320;-65
2024/02/22 09:10:07;;;;;;;1.85;1.38;;;9.10;99.90;;;9.82;100.00;96399.78;10342905;28;20879;-66
2024/02/22 09:15:11;;;;;;;1.77;1.40;;;9.20;99.90;;;9.86;100.00;96387.16;10354227;28;20234;-65
2024/02/22 09:20:18;;;;;;;2.17;1.90;;;9.30;99.90;;;9.85;100.00;96380.34;10350260;28;20313;-65
2024/02/22 09:25:21;;;;;;;1.67;1.58;;;9.30;99.90;;;9.97;100.00;96372.22;10352342;28;20223;-65
2024/02/22 09:30:25;;;;;;;1.60;1.50;;;9.40;99.90;;;9.87;100.00;96368.50;10351634;28;20249;-66
2024/02/22 09:35:29;;;;;;;1.40;1.30;;;9.40;99.90;;;9.90;100.00;96352.41;10349851;28;20229;-65
2024/02/22 09:40:33;;;;;;;2.33;1.90;;;9.50;99.90;;;10.05;100.00;96340.19;10352847;28;20638;-66
2024/02/22 09:45:39;;;;;;;1.98;1.88;;;9.60;99.90;;;10.10;100.00;96336.13;10350258;28;20229;-65
2024/02/22 09:50:43;;;;;;;2.10;2.00;;;9.60;99.90;;;10.04;100.00;96329.91;10349170;28;20218;-65
2024/02/22 09:55:47;;;;;;;1.65;1.55;;;9.50;99.90;;;10.13;100.00;96332.81;10350868;28;20218;-65
2024/02/22 10:00:50;;;;;;;1.40;1.40;;;9.60;99.90;;;10.33;100.00;96339.47;10350793;28;20234;-66
2024/02/22 10:05:55;;;;;;;1.20;1.20;;;9.70;99.90;;;10.40;100.00;96326.91;10348885;28;20231;-66
2024/02/22 10:11:08;;;;;;;1.30;1.23;;;9.70;99.90;;;10.35;100.00;96312.28;10349869;28;20656;-65
2024/02/22 10:16:13;;;;;;;1.38;1.27;;;9.80;99.90;;;10.42;100.00;96294.63;10353852;28;20222;-66
2024/02/22 10:21:19;;;;;;;1.40;1.40;;;9.90;99.90;;;10.49;100.00;96325.50;10349082;28;20234;-66
2024/02/22 10:26:24;;;;;;;1.42;1.42;;;10.00;99.90;;;10.72;100.00;96300.69;10349729;28;20694;-66
2024/02/22 10:31:28;;;;;;;1.40;1.30;;;10.20;99.90;;;10.83;100.00;96286.53;10348988;28;20237;-66
2024/02/22 10:36:32;;;;;;;1.35;1.35;;;10.40;99.90;;;10.90;100.00;96279.06;10349882;28;20234;-66
2024/02/22 10:41:37;;;;;;;1.83;1.10;;;10.50;99.90;;;10.99;100.00;96271.69;10346165;28;20238;-65
2024/02/22 10:46:41;;;;;;;1.20;1.20;;;10.60;99.90;;;10.96;100.00;96262.22;10348871;28;20237;-65
2024/02/22 10:51:47;;;;;;;1.20;1.20;;;10.50;99.90;;;10.81;100.00;96257.50;10348071;28;20292;-65
2024/02/22 10:56:51;;;;;;;1.30;1.30;;;10.40;99.90;;;10.90;100.00;96250.94;10348875;28;20242;-65
2024/02/22 11:01:54;;;;;;;1.40;1.30;;;10.40;99.90;;;10.85;100.00;96252.53;10349299;28;20238;-66
2024/02/22 11:07:05;;;;;;;1.10;1.10;;;10.30;99.90;;;10.98;100.00;96234.13;10347648;28;20234;-65
2024/02/22 11:12:09;;;;;;;1.10;1.10;;;10.30;99.90;;;10.96;100.00;96235.78;10349180;28;20317;-66
2024/02/22 11:17:17;;;;;;;1.38;1.33;;;10.40;99.90;;;10.91;100.00;96228.00;10347952;28;20317;-65
2024/02/22 11:22:22;;;;;;;1.27;1.27;;;10.40;99.90;;;10.90;100.00;96230.50;10347105;28;20638;-65
2024/02/22 11:27:25;;;;;;;1.30;1.20;;;10.40;99.90;;;11.03;100.00;96227.47;10348897;28;20725;-65
2024/02/22 11:32:28;;;;;;;1.38;1.27;;;10.40;99.90;;;10.76;100.00;96205.41;10345863;28;20237;-66
2024/02/22 11:37:33;;;;;;;1.20;1.08;;;10.30;99.90;;;10.70;100.00;96192.47;10346677;28;20268;-65
2024/02/22 11:42:37;;;;;;;2.35;1.70;;;10.20;99.90;;;10.89;100.00;96173.41;10344001;28;20288;-66
2024/02/22 11:47:40;;;;;;;2.15;1.50;;;10.30;99.90;;;10.80;100.00;96158.66;10349451;28;20281;-65
2024/02/22 11:52:45;;;;;;;1.33;1.23;;;10.20;99.90;;;10.86;100.00;96149.44;10352117;28;20230;-66
2024/02/22 11:57:48;;;;;;;1.77;1.30;;;10.30;99.90;;;10.81;100.00;96129.72;10352231;28;20230;-66
2024/02/22 12:02:52;;;;;;;1.20;1.20;;;10.20;99.90;;;10.88;100.00;96112.03;10346973;28;20222;-66
2024/02/22 12:07:57;;;;;;;1.45;1.35;;;10.30;99.90;;;10.79;100.00;96095.63;10343704;28;20292;-66
2024/02/22 12:13:02;;;;;;;1.30;1.30;;;10.20;99.90;;;10.90;100.00;96072.03;10347904;28;20729;-66
2024/02/22 12:18:07;;;;;;;2.60;1.45;;;10.30;99.90;;;10.89;100.00;96062.63;10344961;28;20230;-66
2024/02/22 12:23:12;;;;;;;1.63;1.10;;;10.30;99.90;;;10.95;100.00;96037.22;10343390;28;20261;-67
2024/02/22 12:28:15;;;;;;;1.13;1.13;;;10.40;99.90;;;11.00;100.00;96010.09;10345348;28;20234;-66
2024/02/22 12:33:24;;;;;;;1.00;1.00;;;10.50;99.90;;;11.28;100.00;95997.16;10349597;28;20226;-66
2024/02/22 12:38:29;;;;;;;1.25;1.20;;;10.80;99.90;;;11.34;100.00;95995.59;10345390;28;20756;-66
2024/02/22 12:43:32;;;;;;;1.20;1.20;;;10.90;99.90;;;11.21;100.00;95976.50;10347372;28;20229;-66
2024/02/22 12:48:36;;;;;;;1.48;1.48;;;10.70;99.90;;;11.49;100.00;95976.31;10350984;28;20796;-66
2024/02/22 12:53:42;;;;;;;1.40;1.30;;;10.90;99.90;;;11.53;100.00;95964.47;10354033;28;21273;-66
2024/02/22 12:58:45;;;;;;;1.20;1.20;;;11.10;99.90;;;11.54;100.00;95961.09;10351290;28;20221;-65
2024/02/22 13:03:49;;;;;;;1.25;1.25;;;11.10;99.90;;;11.53;100.00;95949.13;10354607;28;20242;-66
2024/02/22 13:08:53;;;;;;;1.50;1.40;;;10.90;99.90;;;11.43;100.00;95940.38;10351509;28;20295;-66
2024/02/22 13:13:56;;;;;;;2.05;1.50;;;10.90;99.90;;;11.42;100.00;95930.13;10349938;28;20308;-67
2024/02/22 13:19:00;;;;;;;1.13;1.13;;;10.90;99.90;;;11.32;100.00;95917.94;10349004;28;20309;-66
2024/02/22 13:24:06;;;;;;;1.42;1.20;;;10.80;99.90;;;11.35;100.00;95912.91;10353230;28;20245;-66
2024/02/22 13:29:09;;;;;;;1.40;1.38;;;10.70;99.90;;;11.19;100.00;95902.34;10348767;28;20607;-66
2024/02/22 13:34:12;;;;;;;1.38;1.38;;;10.60;99.90;;;11.31;100.00;95895.78;10351604;28;20226;-66
2024/02/22 13:39:17;;;;;;;1.38;1.27;;;10.70;99.90;;;11.27;100.00;95888.03;10352663;28;20284;-67
2024/02/22 13:44:23;;;;;;;1.30;1.10;;;10.60;99.90;;;11.18;100.00;95872.47;10347713;28;20233;-66
2024/02/22 13:49:33;;;;;;;1.13;1.13;;;10.60;99.90;;;11.18;100.00;95859.69;10349162;28;20607;-65
2024/02/22 13:54:37;;;;;;;1.17;1.17;;;10.60;99.90;;;11.04;100.00;95861.06;10348900;28;20230;-66
2024/02/22 13:59:41;;;;;;;1.20;1.10;;;10.50;99.90;;;10.94;100.00;95854.03;10347995;28;20230;-66
2024/02/22 14:04:44;;;;;;;1.55;1.55;;;10.40;99.90;;;10.89;100.00;95846.25;10353602;28;20713;-66
2024/02/22 14:09:49;;;;;;;1.02;0.93;;;10.30;99.90;;;10.89;100.00;95835.16;10350430;28;20244;-66
2024/02/22 14:14:53;;;;;;;1.52;1.42;;;10.20;99.90;;;10.82;100.00;95835.03;10348155;28;20234;-66
2024/02/22 14:19:56;;;;;;;1.52;1.42;;;10.20;99.90;;;10.73;100.00;95829.72;10348227;28;20226;-66
2024/02/22 14:25:00;;;;;;;1.30;1.20;;;10.10;99.90;;;10.84;100.00;95827.38;10348025;28;20264;-66
2024/02/22 14:30:06;;;;;;;2.20;1.40;;;10.20;99.90;;;10.77;100.00;95826.38;10352109;28;20232;-67
2024/02/22 14:35:09;;;;;;;1.70;1.60;;;10.10;99.90;;;10.70;100.00;95813.41;10346031;28;20485;-66
2024/02/22 14:40:16;;;;;;;1.30;1.20;;;10.10;99.90;;;10.57;100.00;95807.19;10351384;28;20239;-66
2024/02/22 14:45:20;;;;;;;1.17;1.17;;;10.10;99.90;;;10.71;100.00;95797.28;10349024;28;20556;-66
2024/02/22 14:50:24;;;;;;;1.42;1.30;;;10.20;99.90;;;10.71;100.00;95782.81;10349508;28;20245;-67
2024/02/22 14:55:29;;;;;;;1.35;1.33;;;10.10;99.90;;;10.71;100.00;95764.06;10349095;28;20233;-66
2024/02/22 15:00:33;;;;;;;1.60;1.50;;;10.20;99.90;;;10.78;100.00;95751.44;10348745;28;20849;-66
2024/02/22 15:05:36;;;;;;;1.58;1.50;;;10.20;99.90;;;10.59;100.00;95739.97;10345220;28;20235;-66
2024/02/22 15:10:40;;;;;;;2.67;1.48;;;10.10;99.90;;;10.67;100.00;95737.56;10352376;28;20234;-66
2024/02/22 15:15:44;;;;;;;1.65;1.55;;;10.10;99.90;;;10.71;100.00;95734.28;10349959;28;20226;-66
2024/02/22 15:20:48;;;;;;;1.40;1.30;;;10.10;99.90;;;10.66;100.00;95720.53;10346596;28;20237;-65
2024/02/22 15:25:53;;;;;;;1.63;1.52;;;10.10;99.90;;;10.77;100.00;95723.31;10344626;28;20228;-66
2024/02/22 15:30:57;;;;;;;1.70;1.60;;;10.20;99.90;;;10.66;100.00;95720.53;10345818;28;20241;-67
2024/02/22 15:36:03;;;;;;;1.50;1.40;;;10.10;99.90;;;10.69;100.00;95718.03;10352113;28;20226;-66
2024/02/22 15:41:08;;;;;;;1.70;1.60;;;10.10;99.90;;;10.53;100.00;95710.84;10348727;28;20598;-66
2024/02/22 15:46:12;;;;;;;1.70;1.60;;;10.00;99.90;;;10.62;100.00;95698.31;10340465;28;20222;-66
2024/02/22 15:51:15;;;;;;;1.67;1.58;;;10.10;99.90;;;10.56;100.00;95700.72;10345728;28;20242;-66
2024/02/22 15:56:24;;;;;;;1.67;1.58;;;10.10;99.90;;;10.59;100.00;95695.69;10345348;28;20276;-66
2024/02/22 16:01:28;;;;;;;1.60;1.50;;;10.10;99.90;;;10.50;100.00;95686.13;10343342;28;20680;-67
2024/02/22 16:06:32;;;;;;;1.50;1.40;;;10.00;99.90;;;10.65;100.00;95683.03;10347753;28;20434;-66
2024/02/22 16:11:37;;;;;;;1.85;1.75;;;10.10;99.90;;;10.46;100.00;95681.78;10344563;28;20266;-66
2024/02/22 16:16:41;;;;;;;2.80;2.60;;;10.00;99.90;;;10.43;100.00;95670.63;10349899;28;20218;-65
2024/02/22 16:21:44;;;;;;;2.35;2.17;;;9.90;99.90;;;10.42;100.00;95674.03;10346716;28;20953;-66
2024/02/22 16:26:49;;;;;;;1.88;1.83;;;9.90;99.90;;;10.46;100.00;95671.56;10343578;28;20238;-65
2024/02/22 16:31:52;;;;;;;1.65;1.60;;;9.90;99.90;;;10.49;100.00;95670.75;10344237;28;20268;-67
2024/02/22 16:36:56;;;;;;;1.80;1.70;;;10.00;99.90;;;10.52;100.00;95671.69;10345801;28;20250;-66
2024/02/22 16:42:00;;;;;;;1.80;1.70;;;10.00;99.90;;;10.49;100.00;95646.09;10352774;28;20222;-67
2024/02/22 16:47:04;;;;;;;1.45;1.40;;;10.00;99.90;;;10.28;100.00;95659.25;10353265;28;20223;-66
2024/02/22 16:52:07;;;;;;;1.90;1.80;;;9.90;99.90;;;10.29;100.00;95650.75;10345337;28;20254;-66
2024/02/22 16:57:12;;;;;;;1.75;1.65;;;9.80;99.90;;;10.44;100.00;95645.13;10346504;28;20281;-66
2024/02/22 17:02:16;;;;;;;1.85;1.73;;;9.90;99.90;;;10.41;100.00;95646.75;10339234;28;20238;-67
2024/02/22 17:07:20;;;;;;;2.15;2.05;;;9.90;99.90;;;10.54;100.00;95636.81;10336721;28;20230;-66
2024/02/22 17:12:24;;;;;;;2.33;1.85;;;9.90;99.90;;;10.46;100.00;95638.34;10328855;28;20323;-66
2024/02/22 17:17:34;;;;;;;1.88;1.77;;;9.90;99.90;;;10.37;100.00;95630.50;10333029;28;20238;-67
2024/02/22 17:22:37;;;;;;;1.52;1.42;;;9.80;99.90;;;10.36;100.00;95634.75;10325619;28;21061;-66
2024/02/22 17:27:42;;;;;;;1.60;1.50;;;9.90;99.90;;;10.42;100.00;95630.63;10330267;28;20345;-66
2024/02/22 17:32:46;;;;;;;2.00;1.90;;;9.90;99.90;;;10.39;100.00;95636.50;10336350;28;20222;-67
2024/02/22 17:37:49;;;;;;;2.85;2.58;;;10.00;99.90;;;10.35;100.00;95627.03;10339944;28;20232;-65
2024/02/22 17:42:54;;;;;;;2.10;2.00;;;9.80;99.90;;;10.30;100.00;95626.06;10339322;28;20230;-68
2024/02/22 17:47:57;;;;;;;2.55;2.35;;;9.80;99.90;;;10.48;100.00;95633.28;10338887;28;20970;-66
2024/02/22 17:53:02;;;;;;;1.90;1.80;;;9.90;99.90;;;10.47;100.00;95619.66;10341166;28;20245;-67
2024/02/22 17:58:07;;;;;;;2.72;1.73;;;10.10;99.90;;;10.50;100.00;95596.75;10340198;28;20227;-67
2024/02/22 18:03:10;;;;;;;1.65;1.55;;;10.10;99.90;;;10.51;100.00;95600.16;10343667;28;20235;-66
2024/02/22 18:08:13;;;;;;;2.30;2.10;;;10.00;99.90;;;10.48;100.00;95588.19;10338500;28;20226;-65
2024/02/22 18:13:18;;;;;;;2.45;2.00;;;10.10;99.90;;;10.46;100.00;95573.66;10333438;28;20729;-66
2024/02/22 18:18:21;;;;;;;2.35;2.15;;;10.10;99.90;;;10.47;100.00;95560.94;10327750;28;20229;-67
2024/02/22 18:23:25;;;;;;;1.90;1.80;;;10.00;99.90;;;10.52;100.00;95538.88;10339091;28;20352;-67
2024/02/22 18:28:29;;;;;;;2.10;2.00;;;10.00;99.90;;;10.57;100.00;95501.50;10339254;28;20226;-67
2024/02/22 18:33:32;;;;;;;2.05;1.95;;;10.10;99.90;;;10.60;100.00;95500.72;10334105;28;20259;-65
2024/02/22 18:38:38;;;;;;;1.90;1.80;;;10.20;99.90;;;10.75;100.00;95482.25;10339255;28;20230;-67
2024/02/22 18:43:42;;;;;;;2.40;2.22;;;10.30;99.90;;;10.85;100.00;95485.84;10331306;28;20729;-67
2024/02/22 18:48:46;;;;;;;1.52;1.48;;;10.40;99.90;;;10.81;100.00;95484.91;10340712;28;20242;-67
2024/02/22 18:53:49;;;;;;;1.98;1.70;;;10.40;99.90;;;11.00;100.00;95499.72;10327118;28;20753;-67
2024/02/22 18:58:56;;;;;;;2.00;1.90;;;10.60;99.90;;;10.91;100.00;95491.06;10331446;28;20232;-67
2024/02/22 19:03:59;;;;;;;1.70;1.60;;;10.60;99.90;;;11.07;99.56;95495.56;10326923;28;20625;-67
2024/02/22 19:09:03;;;;;;;1.80;1.70;;;10.70;99.90;;;11.10;99.92;95497.31;10328344;28;20241;-68
2024/02/22 19:14:07;;;;;;;1.63;1.52;;;10.80;99.90;;;11.07;100.00;95498.13;10331940;28;22527;-67
2024/02/22 19:19:10;;;;;;;1.60;1.50;;;10.80;99.90;;;11.13;100.00;95490.56;10328830;28;20223;-67
2024/02/22 19:24:14;;;;;;;1.60;1.50;;;10.70;99.90;;;11.23;100.00;95484.75;10329943;28;20258;-66
2024/02/22 19:29:18;;;;;;;1.60;1.50;;;10.70;99.90;;;11.19;99.09;95477.88;10329178;28;20711;-67
2024/02/22 19:34:22;;;;;;;1.60;1.58;;;10.80;99.90;;;11.33;99.75;95482.34;10334846;28;20234;-67
2024/02/22 19:39:25;;;;;;;3.25;1.58;;;10.80;99.90;;;11.32;97.32;95475.50;10330129;28;20231;-66
2024/02/22 19:44:30;;;;;;;1.67;1.58;;;10.90;99.90;;;11.41;96.91;95465.41;10334252;28;20237;-66
2024/02/22 19:49:33;;;;;;;1.67;1.58;;;11.00;99.90;;;11.48;97.17;95469.81;10325233;28;20684;-67
2024/02/22 19:54:37;;;;;;;1.45;1.35;;;11.00;99.90;;;11.52;96.66;95468.13;10323589;28;20479;-67
2024/02/22 19:59:41;;;;;;;1.90;1.80;;;11.00;99.90;;;11.42;96.75;95464.59;10329506;28;20230;-67
2024/02/22 20:04:44;;;;;;;1.70;1.60;;;10.90;99.90;;;11.55;95.54;95446.00;10328805;28;20241;-66
2024/02/22 20:09:48;;;;;;;1.90;1.80;;;10.90;99.90;;;11.54;95.00;95444.31;10335739;28;20596;-67
2024/02/22 20:14:52;;;;;;;1.80;1.70;;;11.10;99.90;;;11.62;94.55;95436.75;10339530;28;20260;-68
2024/02/22 20:19:56;;;;;;;1.77;1.67;;;11.20;99.90;;;11.61;94.32;95438.41;10333676;28;20230;-66
2024/02/22 20:24:59;;;;;;;2.10;1.92;;;11.10;99.90;;;11.68;94.98;95447.91;10332395;28;20379;-67
2024/02/22 20:30:08;;;;;;;1.75;1.65;;;11.10;99.90;;;11.67;94.30;95450.44;10338165;28;20261;-67
2024/02/22 20:35:11;;;;;;;1.85;1.75;;;11.10;99.90;;;11.71;93.73;95457.34;10337278;28;20225;-66
2024/02/22 20:40:28;;;;;;;1.90;1.80;;;11.30;99.90;;;11.64;94.87;95458.94;10336370;28;20233;-67
2024/02/22 20:45:34;;;;;;;2.08;1.88;;;11.30;99.90;;;11.67;94.93;95471.75;10335423;28;20234;-66
2024/02/22 20:50:37;;;;;;;3.35;2.10;;;11.30;99.90;;;11.53;97.23;95511.63;10332153;28;20230;-66
2024/02/22 20:55:40;;;;;;;2.35;2.13;;;11.00;99.90;;;11.35;100.00;95552.28;10334239;28;20263;-67
2024/02/22 21:00:45;;;;;;;2.15;2.03;;;10.80;99.90;;;11.24;100.00;95598.97;10337747;28;20261;-67
2024/02/22 21:05:48;;;;;;;1.85;1.70;;;10.60;99.90;;;10.79;100.00;95588.78;10337093;28;20237;-66